• Join FlightAware (Why Join?)
  • Login
  • US Flag 
03:01PM EDT


 

Airport Tracker/Info


-or-


 

Live Flight TrackerFlight Track Log ✈ MAS128 ✈ 12-Jul-2013 ✈ YMML / MEL - WMKK / KUL

Flight Track Log - Related Links

Times and Time Zones

All times are in EDT time to prevent confusion due to time zone crossing. See the MAS128 flight status page for this flight to view local times or setup timezone preferences in your user account.

Time Position Orientation Groundspeed Altitude Reporting Facility
EDT Latitude Longitude Course Direction KTS MPH feet Rate Location/Type
10:09AM -37.6710 144.8430 191° South 8 9  Level FlightAware
10:10AM -37.6720 144.8430 180° South 9 10 60 Level FlightAware
10:12AM -37.4869 144.7344 319° Northwest  Level FlightAware Approximate
10:12AM -37.6770 144.8460 319° Northwest 19 22  Level FlightAware
10:13AM -37.6820 144.8470 171° South 18 21 60 Level FlightAware
10:14AM -37.6840 144.8460 202° Southwest 8 9 120 Level FlightAware
10:14AM -37.6840 144.8440 270° West 11 13 120 Level FlightAware
10:15AM -37.6850 144.8430 218° Southwest 11 13 180 Level FlightAware
10:15AM -37.6860 144.8420 218° Southwest 13 15 180 Level FlightAware
10:16AM -37.6850 144.8410 322° Northwest 4 5 240 Level FlightAware
10:17AM -37.6810 144.8400 349° North 82 94 360 Level FlightAware
10:17AM -37.6660 144.8370 351° North 162 186 900 Level FlightAware
10:17AM -37.6550 144.8350 352° North 163 188 600 2,520 Climbing FlightAware
10:18AM -37.6340 144.8310 351° North 156 180 1,900 1,800 Climbing FlightAware
10:18AM -37.6130 144.8270 351° North 197 227 2,300 900 Climbing FlightAware
10:19AM -37.5890 144.8230 352° North 228 262 2,700 1,140 Climbing FlightAware
10:19AM -37.5590 144.8150 348° North 246 283 3,400 1,620 Climbing FlightAware
10:19AM -37.5420 144.7980 322° Northwest 258 297 3,900 2,340 Climbing FlightAware
10:20AM -37.5180 144.7690 316° Northwest 261 300 5,100 2,400 Climbing FlightAware
10:20AM -37.4920 144.7410 319° Northwest 267 307 6,100 2,400 Climbing FlightAware
10:21AM -37.4660 144.7110 318° Northwest 267 307 7,300 2,520 Climbing FlightAware
10:21AM -37.4510 144.6940 318° Northwest 269 310 8,000 2,100 Climbing FlightAware
10:21AM -37.4230 144.6630 319° Northwest 281 323 8,900 1,980 Climbing FlightAware
10:22AM -37.3930 144.6300 319° Northwest 284 327 10,000 1,860 Climbing FlightAware
10:23AM -37.3548 144.5882 319° Northwest 301 346 10,900 900 Climbing Aus ATC (RADAR)
10:23AM -37.3460 144.5780 319° Northwest 321 369 10,700 1,020 Descending FlightAware
10:23AM -37.2980 144.5250 319° Northwest 340 391 11,800 1,860 Climbing FlightAware
10:24AM -37.2450 144.4670 319° Northwest 344 396 13,400 1,800 Climbing FlightAware
10:25AM -37.1970 144.4130 318° Northwest 357 411 14,400 1,680 Climbing FlightAware
10:25AM -37.1460 144.3580 319° Northwest 360 414 15,700 1,920 Climbing FlightAware
10:26AM -37.0890 144.2950 319° Northwest 360 414 17,200 2,160 Climbing FlightAware
10:27AM -37.0447 144.2471 319° Northwest 357 411 18,600 1,500 Climbing Aus ATC (RADAR)
10:27AM -37.0460 144.2480 319° Northwest 364 419 18,100 660 Descending FlightAware
10:28AM -36.9920 144.1880 318° Northwest 366 421 19,100 1,440 Climbing FlightAware
10:28AM -36.9390 144.1310 319° Northwest 371 427 20,100 1,860 Climbing FlightAware
10:29AM -36.8886 144.0771 319° Northwest 373 429 21,500 1,500 Climbing Aus ATC (RADAR)
10:29AM -36.8870 144.0740 319° Northwest 373 429 21,100 780 Descending FlightAware
10:30AM -36.8330 144.0160 319° Northwest 382 440 22,100 1,380 Climbing FlightAware
10:30AM -36.7790 143.9580 319° Northwest 387 445 23,000 1,500 Climbing FlightAware
10:31AM -36.7177 143.8994 319° Northwest 385 443 24,200 1,080 Climbing Aus ATC (RADAR)
10:31AM -36.7190 143.9000 319° Northwest 391 450 23,800 720 Descending FlightAware
10:32AM -36.6410 143.8230 322° Northwest 395 455 24,900 1,260 Climbing FlightAware
10:32AM -36.5820 143.7650 322° Northwest 393 452 25,800 1,380 Climbing FlightAware
10:33AM -36.5242 143.7105 322° Northwest 393 452 26,700 780 Climbing Aus ATC (RADAR)
10:33AM -36.5200 143.7040 322° Northwest 400 460 26,400 420 Descending FlightAware
10:34AM -36.4660 143.6520 322° Northwest 404 465 27,000 840 Climbing FlightAware
10:34AM -36.4110 143.5980 322° Northwest 408 470 27,500 660 Climbing FlightAware
10:35AM -36.3420 143.5320 322° Northwest 413 475 28,000 900 Climbing FlightAware
10:36AM -36.2860 143.4780 322° Northwest 413 475 28,700 1,560 Climbing FlightAware
10:36AM -36.2337 143.4294 322° Northwest 406 467 29,800 1,020 Climbing Aus ATC (RADAR)
10:36AM -36.2390 143.4320 322° Northwest 410 472 29,300 360 Descending FlightAware
10:37AM -36.1460 143.3430 322° Northwest 411 473 30,200 1,320 Climbing FlightAware
10:37AM -36.1367 143.3354 322° Northwest 406 467 30,700 540 Climbing Aus ATC (RADAR)
10:38AM -36.0830 143.2820 322° Northwest 409 471 30,600 180 Descending FlightAware
10:39AM -36.0160 143.2170 322° Northwest 413 475 31,000 480 Climbing FlightAware
10:40AM -35.9540 143.1580 322° Northwest 415 478 31,300 1,020 Climbing FlightAware
10:40AM -35.9388 143.1451 322° Northwest 418 481 31,800 840 Climbing Aus ATC (RADAR)
10:41AM -35.8377 143.0485 322° Northwest 424 488 32,300 240 Climbing Aus ATC (RADAR)
10:42AM -35.7440 142.9592 322° Northwest 423 487 32,400 -240 Climbing Aus ATC (RADAR)
10:42AM -35.6940 142.9100 322° Northwest 424 488 32,000 -360 Descending FlightAware
10:43AM -35.6320 142.8510 322° Northwest 428 493 32,000 240 Level FlightAware
10:44AM -35.5404 142.7663 322° Northwest 427 491 32,400  Climbing Aus ATC (RADAR)
10:44AM -35.5400 142.7640 322° Northwest 429 494 32,000 -600 Descending FlightAware
10:45AM -35.4780 142.7060 323° Northwest 430 495 32,000 120 Level FlightAware
10:45AM -35.4060 142.6380 322° Northwest 431 496 32,200 600 Climbing FlightAware
10:46AM -35.3432 142.5802 322° Northwest 431 496 32,900 600 Climbing Aus ATC (RADAR)
10:46AM -35.3420 142.5780 322° Northwest 426 490 32,600 180 Descending FlightAware
10:47AM -35.2630 142.5030 322° Northwest 427 491 33,100 660 Climbing FlightAware
10:48AM -35.1920 142.4380 323° Northwest 429 494 33,700 900 Climbing FlightAware
10:48AM -35.1380 142.3872 323° Northwest 427 491 34,300 480 Climbing Aus ATC (RADAR)
10:48AM -35.1360 142.3850 323° Northwest 429 494 34,000 -180 Descending FlightAware
10:49AM -35.0660 142.3200 323° Northwest 426 490 34,200 300 Climbing FlightAware
10:50AM -34.9920 142.2510 323° Northwest 428 493 34,500 720 Climbing FlightAware
10:50AM -34.9310 142.1956 323° Northwest 430 495 35,200 720 Climbing Aus ATC (RADAR)
10:50AM -34.9280 142.1920 323° Northwest 424 488 35,000 540 Descending FlightAware
10:51AM -34.8670 142.1360 323° Northwest 422 486 35,600 720 Climbing FlightAware
10:52AM -34.8040 142.0780 323° Northwest 413 475 36,000 480 Climbing FlightAware
10:52AM -34.7372 142.0160 323° Northwest 419 482 36,300  Climbing Aus ATC (RADAR)
10:52AM -34.7360 142.0140 323° Northwest 422 486 36,000 -420 Descending FlightAware
10:53AM -34.6710 141.9550 323° Northwest 422 486 36,000  Level FlightAware
10:54AM -34.6030 141.8920 323° Northwest 419 482 36,000 180 Level FlightAware
10:55AM -34.5350 141.8311 323° Northwest 419 482 36,300  Climbing Aus ATC (RADAR)
10:55AM -34.5400 141.8340 323° Northwest 422 486 36,000 -480 Descending FlightAware
10:55AM -34.4740 141.7740 323° Northwest 424 488 36,000  Level FlightAware
10:56AM -34.4190 141.7240 323° Northwest 425 489 36,000  Level FlightAware
10:56AM -34.3520 141.6630 323° Northwest 426 490 36,000  Level FlightAware
10:57AM -34.2930 141.6100 323° Northwest 427 491 36,000 240 Level FlightAware
10:58AM -34.2369 141.5591 323° Northwest 425 489 36,300  Climbing Aus ATC (RADAR)
10:58AM -34.2320 141.5550 323° Northwest 427 491 36,000 -360 Descending FlightAware
10:59AM -34.1630 141.4920 323° Northwest 428 493 36,000  Level FlightAware
10:59AM -34.1020 141.4370 323° Northwest 428 493 36,000 180 Level FlightAware
11:00AM -34.0227 141.3660 323° Northwest 431 496 36,300  Climbing Aus ATC (RADAR)
11:00AM -34.0250 141.3680 323° Northwest 429 494 36,000 -480 Descending FlightAware
11:01AM -33.9590 141.3080 323° Northwest 429 494 36,000  Level FlightAware
11:01AM -33.9030 141.2580 323° Northwest 429 494 36,000  Level FlightAware
11:02AM -33.8300 141.1920 323° Northwest 431 496 36,000  Level FlightAware
11:03AM -33.7640 141.1330 323° Northwest 434 499 36,000  Level FlightAware
11:03AM -33.6870 141.0640 323° Northwest 437 503 36,000 240 Level FlightAware
11:04AM -33.6568 141.0379 323° Northwest 430 495 36,400  Climbing Aus ATC (RADAR)
11:04AM -33.6170 141.0020 323° Northwest 436 502 36,000 -600 Descending FlightAware
11:05AM -33.5600 140.9520 324° Northwest 435 501 36,000 300 Level FlightAware
11:05AM -33.5021 140.9008 324° Northwest 437 503 36,400  Climbing Aus ATC (RADAR)
11:05AM -33.4980 140.8960 324° Northwest 432 497 36,000 -480 Descending FlightAware
11:06AM -33.4230 140.8300 324° Northwest 432 497 36,000  Level FlightAware
11:07AM -33.3660 140.7800 324° Northwest 431 496 36,000 300 Level FlightAware
11:08AM -33.2948 140.7179 324° Northwest 432 497 36,400  Climbing Aus ATC (RADAR)
11:08AM -33.2910 140.7140 324° Northwest 433 498 36,000 -480 Descending FlightAware
11:08AM -33.2210 140.6520 323° Northwest 434 499 36,000  Level FlightAware
11:09AM -33.1570 140.5960 324° Northwest 434 499 36,000 300 Level FlightAware
11:10AM -33.0936 140.5416 324° Northwest 428 493 36,400  Climbing Aus ATC (RADAR)
11:10AM -33.0920 140.5390 324° Northwest 429 494 36,000 -600 Descending FlightAware
11:10AM -33.0310 140.4860 324° Northwest 430 495 36,000  Level FlightAware
11:11AM -32.9570 140.4220 324° Northwest 432 497 36,000 240 Level FlightAware
11:12AM -32.8842 140.3589 324° Northwest 434 499 36,400  Climbing Aus ATC (RADAR)
11:12AM -32.8820 140.3550 324° Northwest 436 502 36,000 -480 Descending FlightAware
11:13AM -32.8080 140.2920 324° Northwest 433 498 36,000  Level FlightAware
11:13AM -32.7430 140.2350 324° Northwest 432 497 36,000 300 Level FlightAware
11:14AM -32.6740 140.1770 324° Northwest 435 501 36,400  Climbing Aus ATC (RADAR)
11:14AM -32.6740 140.1750 324° Northwest 431 496 36,000  Descending FlightAware
11:15AM -32.5696 140.0874 324° Northwest 426 490 36,400  Climbing Aus ATC (RADAR)
11:15AM -32.5660 140.0820 324° Northwest 432 497 36,000 -540 Descending FlightAware
11:16AM -32.4970 140.0230 324° Northwest 433 498 36,000  Level FlightAware
11:16AM -32.4340 139.9690 324° Northwest 432 497 36,000  Level FlightAware
11:17AM -32.3710 139.9150 324° Northwest 423 487 36,000 420 Level FlightAware
11:17AM -32.3585 139.9051 324° Northwest 428 493 36,300  Climbing Aus ATC (RADAR)
11:18AM -32.3080 139.8610 324° Northwest 420 483 36,000  Descending FlightAware
11:18AM -32.2542 139.8147 324° Northwest 429 494 36,300  Climbing Aus ATC (RADAR)
11:18AM -32.2360 139.7990 324° Northwest 419 482 36,000 -360 Descending FlightAware
11:19AM -32.1770 139.7490 324° Northwest 417 480 36,000  Level FlightAware
11:20AM -32.1060 139.6890 324° Northwest 417 480 36,000 240 Level FlightAware
11:20AM -32.0481 139.6397 324° Northwest 421 484 36,300  Climbing Aus ATC (RADAR)
11:21AM -32.0380 139.6300 324° Northwest 417 480 36,000 -300 Descending FlightAware
11:21AM -31.9540 139.5590 324° Northwest 419 482 36,000 240 Level FlightAware
11:22AM -31.9364 139.5447 324° Northwest 426 490 36,300 240 Climbing Aus ATC (RADAR)
11:23AM -31.8406 139.4634 324° Northwest 424 488 36,300 -300 Level Aus ATC (RADAR)
11:23AM -31.8590 139.4760 324° Northwest 419 482 36,000 -360 Descending FlightAware
11:24AM -31.8110 139.4360 325° Northwest 419 482 36,000  Level FlightAware
11:24AM -31.7480 139.3800 323° Northwest 419 482 36,000 120 Level FlightAware
11:26AM -31.5491 139.2182 323° Northwest 418 481 36,300 120 Climbing Aus ATC (RADAR)
11:26AM -31.5060 139.1820 323° Northwest 36,000  Descending FlightAware
11:27AM -31.4395 139.1256 323° Northwest 418 481 36,300 120 Climbing Aus ATC (RADAR)
11:28AM -31.3390 139.0431 325° Northwest 411 473 36,300  Level Aus ATC (RADAR)
11:29AM -31.2457 138.9635 324° Northwest 415 478 36,300  Level Aus ATC (RADAR)
11:30AM -31.1442 138.8809 325° Northwest 412 474 36,300  Level Aus ATC (RADAR)
11:31AM -31.0354 138.7918 325° Northwest 408 470 36,300  Level Aus ATC (RADAR)
11:32AM -30.9422 138.7098 323° Northwest 418 481 36,300 -180 Level Aus ATC (RADAR)
11:33AM -30.8520 138.6390 323° Northwest 409 471 36,000 -180 Descending FlightAware
11:34AM -30.7740 138.5740 324° Northwest 409 471 36,000  Level FlightAware
11:35AM -30.7010 138.5150 325° Northwest 408 470 36,000  Level FlightAware
11:36AM -30.6140 138.4440 325° Northwest 406 467 36,000  Level FlightAware
11:36AM -30.5549 138.4224 253° West 32,000  Descending Aus ATC (Calculated)
11:36AM -30.5600 138.4030 327° Northwest 409 471 36,000 3,180 Climbing FlightAware
11:37AM -30.4760 138.3410 327° Northwest 408 470 36,000  Level FlightAware
11:38AM -30.4280 138.3050 327° Northwest 408 470 36,000  Level FlightAware
11:38AM -30.3790 138.2680 327° Northwest 408 470 36,000  Level FlightAware
11:39AM -30.3140 138.2190 327° Northwest 408 470 36,000  Level FlightAware
11:40AM -30.2640 138.1810 327° Northwest 408 470 36,000  Level FlightAware
11:41AM -30.1990 138.1330 327° Northwest 408 470 36,000  Level FlightAware
11:41AM -30.0461 138.0524 160° South 32,000  Descending Aus ATC (Calculated)
11:41AM -30.1510 138.0960 326° Northwest 408 470 36,000 3,660 Climbing FlightAware
11:42AM -30.0870 138.0490 326° Northwest 408 470 36,000  Level FlightAware
11:43AM -30.0390 138.0130 327° Northwest 408 470 36,000  Level FlightAware
11:43AM -29.9740 137.9640 327° Northwest 408 470 36,000  Level FlightAware
11:44AM -29.9260 137.9280 327° Northwest 408 470 36,000  Level FlightAware
11:45AM -29.8590 137.8770 327° Northwest 408 470 36,000  Level FlightAware
11:45AM -29.8080 137.8390 327° Northwest 408 470 36,000  Level FlightAware
11:46AM -29.5339 137.6845 156° South 32,000  Descending Aus ATC (Calculated)
11:46AM -29.7580 137.8020 327° Northwest 408 470 36,000 120 Climbing FlightAware
11:49AM -29.5141 137.6344 329° Northwest  Level FlightAware Approximate
11:50AM -29.4124 137.5648 329° Northwest  Level FlightAware Approximate
11:51AM -29.3107 137.4953 329° Northwest  Level FlightAware Approximate
11:51AM -29.0677 137.3535 329° Northwest 32,000  Level Aus ATC (Calculated)
11:53AM -28.9082 137.2410 328° Northwest  Level FlightAware Approximate
11:53AM -28.8561 137.2044 329° Northwest 32,000  Level Aus ATC (Calculated)
11:54AM -28.8074 137.1702 328° Northwest  Level FlightAware Approximate
11:55AM -28.7233 137.1112 328° Northwest  Level FlightAware Approximate
11:55AM -28.6178 137.0374 329° Northwest 32,000  Level Aus ATC (Calculated)
11:56AM -28.6224 137.0406 328° Northwest  Level FlightAware Approximate
11:57AM -28.5001 136.9552 328° Northwest  Level FlightAware Approximate
11:57AM -28.4191 136.8988 329° Northwest 32,000  Level Aus ATC (Calculated)
11:58AM -28.3991 136.8849 329° Northwest  Level FlightAware Approximate
11:59AM -28.2861 136.8065 329° Northwest  Level FlightAware Approximate
12:00PM -28.1851 136.7364 329° Northwest  Level FlightAware Approximate
12:01PM -28.2861 136.8064 149° Southeast  Level FlightAware Approximate
12:01PM -28.0764 136.6629 329° Northwest 32,000  Level Aus ATC (Calculated)
12:03PM -28.0980 136.6775 329° Northwest  Level FlightAware Approximate
12:04PM -27.9965 136.6086 329° Northwest  Level FlightAware Approximate
12:05PM -27.8949 136.5397 329° Northwest  Level FlightAware Approximate
12:06PM -27.7933 136.4710 329° Northwest  Level FlightAware Approximate
12:06PM -27.5966 136.3384 329° Northwest 32,000  Level Aus ATC (Calculated)
12:08PM -27.4338 136.2291 329° Northwest  Level FlightAware Approximate
12:09PM -27.3321 136.1610 329° Northwest  Level FlightAware Approximate
12:10PM -27.2303 136.0930 329° Northwest  Level FlightAware Approximate
12:11PM -27.1285 136.0251 329° Northwest  Level FlightAware Approximate
12:11PM -27.1159 136.0167 329° Northwest 32,000  Level Aus ATC (Calculated)
12:12PM -27.0267 135.9573 329° Northwest  Level FlightAware Approximate
12:13PM -26.9513 135.9072 329° Northwest  Level FlightAware Approximate
12:14PM -26.8494 135.8397 329° Northwest  Level FlightAware Approximate
12:15PM -26.7474 135.7723 329° Northwest  Level FlightAware Approximate
12:15PM -26.9460 135.9040 329° Northwest 382 440 36,000  Level FlightAware
12:16PM -26.8650 135.8500 329° Northwest 381 438 36,000  Level FlightAware
12:16PM -26.6288 135.6939 149° Southeast 36,000  Level Aus ATC (Calculated)
12:16PM -26.8040 135.8100 329° Northwest 380 437 36,000  Level FlightAware
12:17PM -26.7400 135.7680 330° Northwest 381 438 36,000  Level FlightAware
12:18PM -26.4670 135.5874 150° Southeast 36,000  Level Aus ATC (Calculated)
12:18PM -26.6750 135.7240 329° Northwest 382 440 36,000  Level FlightAware
12:18PM -26.6140 135.6850 329° Northwest 384 442 36,000  Level FlightAware
12:19PM -26.3590 135.5166 150° Southeast 36,000  Level Aus ATC (Calculated)
12:19PM -26.5420 135.6370 329° Northwest 386 444 36,000  Level FlightAware
12:20PM -26.4930 135.6050 330° Northwest 387 445 36,000  Level FlightAware
12:21PM -26.4260 135.5610 330° Northwest 389 448 36,000  Level FlightAware
12:21PM -26.1431 135.3754 150° Southeast 36,000  Level Aus ATC (Calculated)
12:21PM -26.1431 135.3754 150° Southeast 36,000  Level Aus ATC (Calculated)
12:21PM -26.3640 135.5200 329° Northwest 389 448 36,000  Level FlightAware
12:22PM -26.2960 135.4760 329° Northwest 389 448 36,000  Level FlightAware
12:23PM -26.2280 135.4310 329° Northwest 389 448 36,000  Level FlightAware
12:23PM -25.9810 135.2698 150° Southeast 36,000  Level Aus ATC (Calculated)
12:23PM -26.1650 135.3900 330° Northwest 388 447 36,000  Level FlightAware
12:24PM -26.1040 135.3500 330° Northwest 389 448 36,000  Level FlightAware
12:25PM -26.0460 135.3120 330° Northwest 390 449 36,000  Level FlightAware
12:25PM -25.9820 135.2710 330° Northwest 391 450 36,000  Level FlightAware
12:26PM -25.9140 135.2260 329° Northwest 392 451 36,000  Level FlightAware
12:27PM -25.8530 135.1870 330° Northwest 393 452 36,000  Level FlightAware
12:27PM -25.7780 135.1380 330° Northwest 393 452 36,000  Level FlightAware
12:28PM -25.4943 134.9547 150° Southeast 36,000  Level Aus ATC (Calculated)
12:28PM -25.7230 135.1030 330° Northwest 393 452 36,000  Level FlightAware
12:29PM -25.6500 135.0550 330° Northwest 393 452 36,000  Level FlightAware
12:30PM -25.5790 135.0100 330° Northwest 393 452 36,000  Level FlightAware
12:30PM -25.5320 134.9790 329° Northwest 392 451 36,000  Level FlightAware
12:31PM -25.4610 134.9330 330° Northwest 393 452 36,000  Level FlightAware
12:31PM -25.3980 134.8930 330° Northwest 393 452 36,000  Level FlightAware
12:32PM -25.3460 134.8600 330° Northwest 394 453 36,000  Level FlightAware
12:33PM -25.2740 134.8130 329° Northwest 393 452 36,000  Level FlightAware
12:33PM -25.0069 134.6421 150° Southeast 36,000  Level Aus ATC (Calculated)
12:33PM -25.2100 134.7720 329° Northwest 393 452 36,000  Level FlightAware
12:34PM -25.1520 134.7350 330° Northwest 392 451 36,000  Level FlightAware
12:35PM -25.0970 134.7000 330° Northwest 391 450 36,000  Level FlightAware
12:35PM -25.0240 134.6530 330° Northwest 391 450 36,000  Level FlightAware
12:36PM -24.9680 134.6180 330° Northwest 391 450 36,000  Level FlightAware
12:36PM -24.6631 134.4239 150° Southeast 36,000  Level Aus ATC (Calculated)
12:37PM -24.9060 134.5780 330° Northwest 392 451 36,000  Level FlightAware
12:37PM -24.8320 134.5310 330° Northwest 394 453 36,000  Level FlightAware
12:38PM -24.7750 134.4950 330° Northwest 395 455 36,000  Level FlightAware
12:39PM -24.6980 134.4460 330° Northwest 396 456 36,000  Level FlightAware
12:40PM -24.6350 134.4060 330° Northwest 396 456 36,000  Level FlightAware
12:40PM -24.5730 134.3670 330° Northwest 397 457 36,000  Level FlightAware
12:41PM -24.5100 134.3270 330° Northwest 397 457 36,000  Level FlightAware
12:41PM -24.2281 134.1501 150° Southeast 36,000  Level Aus ATC (Calculated)
12:42PM -24.4450 134.2870 330° Northwest 398 458 36,000  Level FlightAware
12:42PM -24.3810 134.2460 330° Northwest 399 459 36,000  Level FlightAware
12:43PM -24.3080 134.2010 331° Northwest 399 459 36,000  Level FlightAware
12:43PM -24.2600 134.1700 330° Northwest 399 459 36,000  Level FlightAware
12:44PM -24.1990 134.1320 330° Northwest 399 459 36,000  Level FlightAware
12:45PM -24.1090 134.0750 330° Northwest 400 460 36,000  Level FlightAware
12:46PM -24.0390 134.0320 331° Northwest 402 463 36,000  Level FlightAware
12:46PM -23.7586 133.8359 147° Southeast 36,000  Level Aus ATC (Calculated)
12:46PM -23.9750 133.9920 330° Northwest 402 463 36,000  Level FlightAware
12:47PM -23.9010 133.9460 330° Northwest 403 464 36,000  Level FlightAware
12:48PM -23.8300 133.9010 330° Northwest 399 459 36,000  Level FlightAware
12:49PM -23.7760 133.8540 321° Northwest 391 450 36,000  Level FlightAware
12:49PM -23.5535 133.5827 132° Southeast 36,000  Level Aus ATC (Calculated)
12:49PM -23.7250 133.7940 321° Northwest 386 444 36,000  Level FlightAware
12:50PM -23.6820 133.7420 312° West 386 444 36,000  Level FlightAware
12:51PM -23.6300 133.6770 311° West 387 445 36,000  Level FlightAware
12:51PM -23.5830 133.6190 311° West 386 444 36,000  Level FlightAware
12:52PM -23.5370 133.5630 312° West 386 444 36,000  Level FlightAware
12:53PM -23.4880 133.5030 312° West 386 444 36,000  Level FlightAware
12:53PM -23.2452 133.2043 132° Southeast 36,000  Level Aus ATC (Calculated)
12:53PM -23.4400 133.4440 312° West 387 445 36,000  Level FlightAware
12:54PM -23.3900 133.3820 311° West 388 447 36,000  Level FlightAware
12:55PM -23.3430 133.3240 311° West 389 448 36,000  Level FlightAware
12:55PM -23.2900 133.2600 312° West 389 448 36,000  Level FlightAware
12:56PM -23.2430 133.2030 312° West 388 447 36,000  Level FlightAware
12:57PM -23.1970 133.1450 311° West 388 447 36,000  Level FlightAware
12:57PM -23.1500 133.0890 312° West 388 447 36,000  Level FlightAware
12:58PM -23.0960 133.0220 311° West 388 447 36,000  Level FlightAware
12:58PM -22.9015 132.7860 132° Southeast 36,000  Level Aus ATC (Calculated)
12:59PM -23.0480 132.9650 311° West 389 448 36,000  Level FlightAware
12:59PM -22.9950 132.9000 312° West 390 449 36,000  Level FlightAware
01:00PM -22.9450 132.8390 312° West 390 449 36,000  Level FlightAware
01:01PM -22.8970 132.7810 312° West 391 450 36,000  Level FlightAware
01:01PM -22.8450 132.7170 311° West 392 451 36,000  Level FlightAware
01:02PM -22.8050 132.6700 313° West 393 452 36,000  Level FlightAware
01:03PM -22.5568 132.3697 132° Southeast 36,000  Level Aus ATC (Calculated)
01:03PM -22.7500 132.6020 311° West 393 452 36,000  Level FlightAware
01:04PM -22.6960 132.5380 311° West 393 452 36,000  Level FlightAware
01:04PM -22.5222 132.3282 132° Southeast 36,000  Level Aus ATC (Calculated)
01:04PM -22.6580 132.4920 311° West 393 452 36,000  Level FlightAware
01:05PM -22.6040 132.4270 312° West 394 453 36,000  Level FlightAware
01:05PM -22.5530 132.3650 312° West 394 453 36,000  Level FlightAware
01:06PM -22.5040 132.3070 312° West 395 455 36,000  Level FlightAware
01:07PM -22.4530 132.2450 312° West 395 455 36,000  Level FlightAware
01:08PM -22.4010 132.1830 312° West 396 456 36,000  Level FlightAware
01:08PM -22.1763 131.9141 132° Southeast 36,000  Level Aus ATC (Calculated)
01:08PM -22.3470 132.1190 312° West 397 457 36,000  Level FlightAware
01:09PM -22.3080 132.0720 312° West 396 456 36,000  Level FlightAware
01:10PM -22.2510 132.0030 312° West 397 457 36,000  Level FlightAware
01:10PM -22.2020 131.9450 312° West 397 457 36,000  Level FlightAware
01:11PM -22.1580 131.8930 312° West 396 456 36,000  Level FlightAware
01:12PM -22.1060 131.8310 312° West 396 456 36,000  Level FlightAware
01:12PM -22.0480 131.7620 312° West 397 457 36,000  Level FlightAware
01:13PM -21.9970 131.7010 312° West 397 457 36,000  Level FlightAware
01:13PM -21.8292 131.5021 132° Southeast 36,000  Level Aus ATC (Calculated)
01:14PM -21.9460 131.6400 312° West 399 459 36,000  Level FlightAware
01:14PM -21.8940 131.5790 313° West 399 459 36,000  Level FlightAware
01:15PM -21.8460 131.5220 312° West 399 459 36,000  Level FlightAware
01:15PM -21.6553 131.2969 132° Southeast 36,000  Level Aus ATC (Calculated)
01:16PM -21.8020 131.4700 312° West 399 459 36,000  Level FlightAware
01:17PM -21.7520 131.4100 312° West 399 459 36,000  Level FlightAware
01:17PM -21.5341 131.1543 133° Southeast 36,000  Level Aus ATC (Calculated)
01:17PM -21.7140 131.3650 312° West 399 459 36,000  Level FlightAware
01:18PM -21.6300 131.2670 313° West 398 458 36,000  Level FlightAware
01:19PM -21.4309 131.0333 132° Southeast 36,000  Level Aus ATC (Calculated)
01:19PM -21.4309 131.0333 132° Southeast 36,000  Level Aus ATC (Calculated)
01:19PM -21.5770 131.2050 313° West 398 458 36,000  Level FlightAware
01:19PM -21.5280 131.1470 313° West 399 459 36,000  Level FlightAware
01:20PM -21.4650 131.0740 313° West 400 460 36,000  Level FlightAware
01:21PM -21.4110 131.0100 312° West 401 461 36,000  Level FlightAware
01:22PM -21.3580 130.9490 313° West 402 463 36,000  Level FlightAware
01:22PM -21.3050 130.8870 313° West 402 463 36,000  Level FlightAware
01:23PM -21.2530 130.8260 313° West 402 463 36,000  Level FlightAware
01:23PM -21.0689 130.6111 133° Southeast 36,000  Level Aus ATC (Calculated)
01:23PM -21.0689 130.6111 133° Southeast 36,000  Level Aus ATC (Calculated)
01:24PM -21.1820 130.7430 313° West 402 463 36,000  Level FlightAware
01:25PM -21.1320 130.6850 313° West 402 463 36,000  Level FlightAware
01:25PM -21.0820 130.6260 313° West 401 461 36,000  Level FlightAware
01:26PM -21.0440 130.5800 312° West 401 461 36,000  Level FlightAware
01:27PM -20.9790 130.5040 312° West 401 461 36,000  Level FlightAware
01:28PM -20.9410 130.4590 312° West 401 461 36,000  Level FlightAware
01:28PM -20.8900 130.3970 311° West 401 461 36,000  Level FlightAware
01:28PM -20.6539 130.1311 133° Southeast 36,000  Level Aus ATC (Calculated)
01:29PM -20.7940 130.2930 311° West 406 467 36,000  Level FlightAware
01:30PM -20.7500 130.2410 312° West 406 467 36,000  Level FlightAware
01:31PM -20.6690 130.1480 313° West 406 467 36,000  Level FlightAware
01:32PM -20.5950 130.0640 313° West 406 467 36,000  Level FlightAware
01:33PM -20.5230 129.9810 313° West 407 468 36,000  Level FlightAware
01:33PM -20.4710 129.9220 313° West 409 471 36,000  Level FlightAware
01:33PM -20.2897 129.7131 133° Southeast 36,000  Level Aus ATC (Calculated)
01:34PM -20.4250 129.8670 312° West 409 471 36,000  Level FlightAware
01:35PM -20.3860 129.8210 312° West 409 471 36,000  Level FlightAware
01:35PM -20.3340 129.7590 312° West 409 471 36,000  Level FlightAware
01:36PM -20.2960 129.7140 312° West 409 471 36,000  Level FlightAware
01:37PM -20.2310 129.6370 312° West 409 471 36,000  Level FlightAware
01:38PM -20.1760 129.5720 312° West 409 471 36,000  Level FlightAware
01:38PM -20.1360 129.5250 312° West 409 471 36,000  Level FlightAware
01:38PM -19.8722 129.2379 135° Southeast 36,000  Level Aus ATC (Calculated)
01:39PM -20.0980 129.4790 312° West 409 471 36,000  Level FlightAware
01:40PM -20.0580 129.4320 312° West 409 471 36,000  Level FlightAware
01:40PM -20.0050 129.3700 312° West 409 471 36,000  Level FlightAware
01:41PM -19.9650 129.3230 312° West 409 471 36,000  Level FlightAware
01:42PM -19.9260 129.2770 312° West 409 471 36,000  Level FlightAware
01:42PM -19.8860 129.2290 312° West 409 471 36,000  Level FlightAware
01:43PM -19.8340 129.1680 312° West 409 471 36,000  Level FlightAware
01:43PM -19.5058 128.8241 136° Southeast 36,000  Level Aus ATC (Calculated)
01:44PM -19.7930 129.1190 312° West 409 471 36,000  Level FlightAware
01:45PM -19.7430 129.0610 312° West 409 471 36,000  Level FlightAware
01:46PM -19.6790 128.9850 312° West 409 471 36,000  Level FlightAware
01:46PM -19.6270 128.9240 312° West 409 471 36,000  Level FlightAware
01:47PM -19.5870 128.8770 312° West 409 471 36,000  Level FlightAware
01:48PM -19.5220 128.8000 312° West 409 471 36,000  Level FlightAware
01:48PM -19.0859 128.3534 309° West 36,000  Level Aus ATC (Calculated)
01:51PM -18.9148 128.1626 313° West  Level FlightAware Approximate
01:52PM -18.8319 128.0704 314° West  Level FlightAware Approximate
01:53PM -18.7490 127.9783 314° West  Level FlightAware Approximate
01:53PM -18.7176 127.9435 308° West 36,000  Level Aus ATC (Calculated)
01:54PM -18.6660 127.8863 314° West  Level FlightAware Approximate
01:55PM -18.6290 127.8454 314° West  Level FlightAware Approximate
01:56PM -18.5460 127.7535 314° West  Level FlightAware Approximate
01:57PM -18.4629 127.6618 314° West  Level FlightAware Approximate
01:58PM -18.3798 127.5701 314° West  Level FlightAware Approximate
01:58PM -18.3483 127.5354 308° West 36,000  Level Aus ATC (Calculated)
01:59PM -18.2966 127.4784 314° West  Level FlightAware Approximate
02:00PM -18.2582 127.4362 314° West  Level FlightAware Approximate
02:01PM -18.1749 127.3447 314° West  Level FlightAware Approximate
02:01PM -18.0748 127.2350 308° West 36,000  Level Aus ATC (Calculated)
02:02PM -18.2582 127.4362 134° Southeast  Level FlightAware Approximate
02:03PM -18.1720 127.3416 134° Southeast  Level FlightAware Approximate
02:03PM -17.9069 127.0512 308° West 36,000  Level Aus ATC (Calculated)
02:04PM -17.9069 127.0512 308° West 36,000  Level Aus ATC (Calculated)
02:05PM -17.8283 126.9420 314° West  Level Estimated
02:06PM -17.7637 126.8949 314° West  Level FlightAware Approximate
02:06PM -17.6827 126.8067 308° West 36,000  Level Aus ATC (Calculated)
02:07PM -17.6801 126.8039 314° West  Level FlightAware Approximate
02:08PM -17.5769 126.6917 314° West  Level FlightAware Approximate
02:09PM -17.4933 126.6009 314° West  Level FlightAware Approximate
02:10PM -17.4096 126.5102 314° West  Level FlightAware Approximate
02:11PM -17.3260 126.4196 314° West  Level FlightAware Approximate
02:11PM -17.2896 126.3803 308° West 36,000  Level Aus ATC (Calculated)
02:12PM -17.2422 126.3291 314° West  Level FlightAware Approximate
02:13PM -17.1836 126.2657 314° West  Level FlightAware Approximate
02:14PM -17.0998 126.1754 314° West  Level FlightAware Approximate
02:15PM -17.0159 126.0851 314° West  Level FlightAware Approximate
02:16PM -16.9321 125.9949 314° West  Level FlightAware Approximate
02:16PM -16.8957 125.9557 308° West 36,000  Level Aus ATC (Calculated)
02:17PM -16.8482 125.9047 314° West  Level FlightAware Approximate
02:18PM -16.7879 125.8401 314° West  Level FlightAware Approximate
02:19PM -16.7040 125.7501 314° West  Level FlightAware Approximate
02:20PM -16.6199 125.6602 314° West  Level FlightAware Approximate
02:21PM -16.5359 125.5704 314° West  Level FlightAware Approximate
02:21PM -16.4443 125.4726 308° West 36,000  Level Aus ATC (Calculated)
02:21PM -16.4443 125.4726 308° West 36,000  Level Aus ATC (Calculated)
02:22PM -16.4518 125.4806 314° West  Level FlightAware Approximate
02:23PM -16.3328 125.5840 44° Northeast  Level FlightAware Approximate
02:23PM -16.3120 125.3316 308° West 38,000  Level Aus ATC (Calculated)
02:24PM -16.3698 125.3933 314° West  Level FlightAware Approximate
02:25PM -16.1969 125.2093 314° West  Level FlightAware Approximate
02:25PM -16.1796 125.1909 307° West 38,000  Level Aus ATC (Calculated)
02:26PM -16.0912 125.0971 307° West 38,000  Level Aus ATC (Calculated)
02:26PM -16.0029 125.0035 307° West 38,000  Level Aus ATC (Calculated)
02:28PM -15.8974 124.8919 314° West  Level FlightAware Approximate
02:28PM -15.8702 124.8632 307° West 38,000  Level Aus ATC (Calculated)
02:30PM -15.7464 124.7324 315° West  Level FlightAware Approximate
02:31PM -15.6620 124.6434 315° West  Level FlightAware Approximate
02:31PM -15.5637 124.5400 307° West 38,000  Level Aus ATC (Calculated)
02:32PM -15.7464 124.7324 135° Southeast  Level FlightAware Approximate
02:33PM -15.6620 124.6434 315° West  Level FlightAware Approximate
02:34PM -15.5997 124.5778 315° West  Level FlightAware Approximate
02:35PM -15.5151 124.4888 315° West  Level FlightAware Approximate
02:36PM -15.4306 124.4000 315° West  Level FlightAware Approximate
02:36PM -15.1577 124.1140 307° West 38,000  Level Aus ATC (Calculated)
02:37PM -15.3460 124.3112 315° West  Level FlightAware Approximate
02:38PM -15.0688 124.0211 315° West  Level FlightAware Approximate
02:38PM -14.9835 123.9320 306° West 38,000  Level Aus ATC (Calculated)
02:39PM -14.9840 123.9326 315° West  Level FlightAware Approximate
02:39PM -14.8672 123.8108 306° West 38,000  Level Aus ATC (Calculated)
02:40PM -14.8817 123.8259 315° West  Level FlightAware Approximate
02:41PM -14.7767 123.7166 315° West  Level FlightAware Approximate
02:42PM -14.6919 123.6284 315° West  Level FlightAware Approximate
02:43PM -14.6070 123.5403 315° West  Level FlightAware Approximate
02:43PM -14.5763 123.5084 306° West 38,000  Level Aus ATC (Calculated)
02:44PM -14.5221 123.4522 315° West  Level FlightAware Approximate
02:44PM -14.4598 123.3876 306° West 38,000  Level Aus ATC (Calculated)
02:45PM -14.4673 123.3954 315° West  Level FlightAware Approximate
02:46PM -14.3692 123.2938 315° West  Level FlightAware Approximate
02:47PM -14.2841 123.2059 315° West  Level FlightAware Approximate
02:48PM -14.1991 123.1180 315° West  Level FlightAware Approximate
02:49PM -14.1140 123.0303 315° West  Level FlightAware Approximate
02:49PM -13.9932 122.9058 305° West 38,000  Level Aus ATC (Calculated)
02:50PM -14.0289 122.9426 315° West  Level FlightAware Approximate
02:51PM -13.9010 122.8109 315° West  Level FlightAware Approximate
02:52PM -13.8158 122.7234 315° West  Level FlightAware Approximate
02:53PM -13.7306 122.6359 315° West  Level FlightAware Approximate
02:54PM -13.6453 122.5485 315° West  Level FlightAware Approximate
02:54PM -13.5842 122.4859 304° West 38,000  Level Aus ATC (Calculated)
02:55PM -13.5601 122.4612 315° West  Level FlightAware Approximate
02:56PM -13.4918 122.3913 315° West  Level FlightAware Approximate
02:57PM -13.4065 122.3041 315° West  Level FlightAware Approximate
02:57PM -13.3501 122.2466 304° West 38,000  Level Aus ATC (Calculated)
02:58PM -13.2330 122.1271 304° West 38,000  Level Aus ATC (Calculated)
02:59PM -13.1745 122.0674 303° West 38,000  Level Aus ATC (Calculated)
03:00PM -13.1159 122.0077 303° West 38,000  Level Aus ATC (Calculated)
03:02PM -12.9592 121.8483 315° West  Level FlightAware Approximate
03:03PM -12.8736 121.7614 315° West  Level FlightAware Approximate
03:03PM -12.8813 121.7692 303° West 38,000  Level Aus ATC (Calculated)
03:03PM -12.8227 121.7097 302° West 38,000  Level Aus ATC (Calculated)
03:05PM -12.7043 121.5897 315° West  Level FlightAware Approximate
03:06PM -12.6187 121.5030 315° West  Level FlightAware Approximate
03:07PM -12.5331 121.4164 315° West  Level FlightAware Approximate
03:07PM -12.4704 121.3531 301° West 38,000  Level Aus ATC (Calculated)
03:08PM -12.4474 121.3298 315° West  Level FlightAware Approximate
03:09PM -12.3547 121.2363 315° West  Level FlightAware Approximate
03:09PM -12.2941 121.1751 300° West 38,000  Level Aus ATC (Calculated)
03:10PM -12.2690 121.1498 315° West  Level FlightAware Approximate
03:11PM -12.1841 121.0642 315° West  Level FlightAware Approximate
03:12PM -12.0983 120.9779 315° West  Level FlightAware Approximate
03:13PM -12.0125 120.8916 315° West  Level FlightAware Approximate
03:14PM -11.9267 120.8054 315° West  Level FlightAware Approximate
03:15PM -12.0125 120.8916 135° Southeast  Level FlightAware Approximate
03:16PM -11.9267 120.8054 315° West  Level FlightAware Approximate
03:17PM -12.0125 120.8916 135° Southeast  Level FlightAware Approximate
03:18PM -11.9267 120.8054 315° West  Level FlightAware Approximate
03:19PM -11.9750 120.8331 299° West  Level FlightAware Approximate
03:20PM -11.9165 120.7256 299° West  Level FlightAware Approximate
03:21PM -11.8580 120.6182 299° West  Level FlightAware Approximate
03:22PM -11.7994 120.5108 299° West  Level FlightAware Approximate
03:23PM -11.7408 120.4034 299° West  Level FlightAware Approximate
03:24PM -11.6821 120.2961 299° West  Level FlightAware Approximate
03:25PM -11.6234 120.1889 299° West  Level FlightAware Approximate
03:26PM -11.5647 120.0817 299° West  Level FlightAware Approximate
03:27PM -11.5059 119.9745 299° West  Level FlightAware Approximate
03:28PM -11.4471 119.8674 299° West  Level FlightAware Approximate
03:29PM -11.3883 119.7603 299° West  Level FlightAware Approximate
03:30PM -11.3294 119.6533 299° West  Level FlightAware Approximate
03:31PM -11.2704 119.5463 299° West  Level FlightAware Approximate
03:32PM -11.2115 119.4393 299° West  Level FlightAware Approximate
03:33PM -11.1525 119.3324 299° West  Level FlightAware Approximate
03:34PM -11.0934 119.2256 299° West  Level FlightAware Approximate
03:35PM -11.0343 119.1188 299° West  Level FlightAware Approximate
03:36PM -10.9752 119.0120 299° West  Level FlightAware Approximate
03:37PM -10.9161 118.9053 299° West  Level FlightAware Approximate
03:38PM -10.8569 118.7986 299° West  Level FlightAware Approximate
03:39PM -10.7976 118.6919 299° West  Level FlightAware Approximate
03:40PM -10.7384 118.5854 299° West  Level FlightAware Approximate
03:41PM -10.6791 118.4788 300° West  Level FlightAware Approximate
03:42PM -10.6197 118.3723 300° West  Level FlightAware Approximate
03:43PM -10.5604 118.2658 300° West  Level FlightAware Approximate
03:44PM -10.5009 118.1594 300° West  Level FlightAware Approximate
03:45PM -10.4415 118.0530 300° West  Level FlightAware Approximate
03:46PM -10.3820 117.9466 300° West  Level FlightAware Approximate
03:47PM -10.3225 117.8403 300° West  Level FlightAware Approximate
03:48PM -10.2629 117.7340 300° West  Level FlightAware Approximate
03:48PM -9.8570 117.0270 300° West 470 541 38,000  Level FlightAware
03:49PM -10.2034 117.6278 300° West  Level FlightAware Approximate
03:49PM -9.8160 116.9550 300° West 471 542 38,000  Level FlightAware
03:49PM -9.7740 116.8870 302° West 469 540 38,000  Level FlightAware
03:50PM -9.7260 116.8050 301° West 467 537 38,000  Level FlightAware
03:50PM -9.6790 116.7250 301° West 466 536 38,000  Level FlightAware
03:51PM -9.6350 116.6510 301° West 468 539 38,000  Level FlightAware
03:52PM -9.5880 116.5720 301° West 469 540 38,000  Level FlightAware
03:52PM -9.5540 116.5150 301° West 469 540 38,000  Level FlightAware
03:53PM -9.5120 116.4420 300° West 471 542 38,000  Level FlightAware
03:54PM -9.4610 116.3570 301° West 472 543 38,000  Level FlightAware
03:54PM -9.4170 116.2830 301° West 474 545 38,000  Level FlightAware
03:55PM -9.3650 116.1950 301° West 476 548 38,000  Level FlightAware
03:56PM -9.3150 116.1110 301° West 477 549 38,000  Level FlightAware
03:57PM -9.2670 116.0300 301° West 475 547 38,000  Level FlightAware
03:57PM -9.2150 115.9580 306° West 473 544 38,000  Level FlightAware
03:58PM -9.1570 115.8950 313° West 473 544 38,000  Level FlightAware
03:59PM -9.0910 115.8230 313° West 472 543 38,000  Level FlightAware
03:59PM -9.0260 115.7530 313° West 474 545 38,000  Level FlightAware
04:00PM -8.9610 115.6820 313° West 476 548 38,000  Level FlightAware
04:01PM -8.9070 115.6250 314° West 477 549 38,000  Level FlightAware
04:01PM -8.8480 115.5610 313° West 478 550 38,000  Level FlightAware
04:02PM -8.7860 115.4940 313° West 479 551 38,000  Level FlightAware
04:03PM -8.7260 115.4300 313° West 481 554 38,000  Level FlightAware
04:03PM -8.6650 115.3640 313° West 481 554 38,000  Level FlightAware
04:04PM -8.6030 115.2970 313° West 480 552 38,000  Level FlightAware
04:05PM -8.5390 115.2280 313° West 478 550 38,000  Level FlightAware
04:05PM -8.4730 115.1580 314° West 479 551 38,000  Level FlightAware
04:06PM -8.4090 115.0880 313° West 480 552 38,000  Level FlightAware
04:07PM -8.3450 115.0190 313° West 481 554 38,000  Level FlightAware
04:08PM -8.2770 114.9470 314° West 481 554 38,000  Level FlightAware
04:08PM -8.2170 114.8830 313° West 480 552 38,000  Level FlightAware
04:09PM -8.1560 114.8170 313° West 480 552 38,000  Level FlightAware
04:10PM -8.0900 114.7460 313° West 479 551 38,000  Level FlightAware
04:10PM -8.0490 114.7030 314° West 479 551 38,000  Level FlightAware
04:10PM -8.0100 114.6610 313° West 480 552 38,000  Level FlightAware
04:11PM -7.9530 114.5990 313° West 480 552 38,000  Level FlightAware
04:12PM -7.8850 114.5260 313° West 481 554 38,000  Level FlightAware
04:13PM -7.8240 114.4620 314° West 481 554 38,000  Level FlightAware
04:13PM -7.7570 114.3900 313° West 479 551 38,000  Level FlightAware
04:14PM -7.6950 114.3230 313° West 479 551 38,000  Level FlightAware
04:15PM -7.6440 114.2680 313° West 479 551 38,000  Level FlightAware
04:15PM -7.5920 114.2130 314° West 481 554 38,000  Level FlightAware
04:16PM -7.5270 114.1440 314° West 481 554 38,000  Level FlightAware
04:16PM -7.4720 114.0850 313° West 482 555 38,000  Level FlightAware
04:17PM -7.4100 114.0190 313° West 483 556 38,000  Level FlightAware
04:18PM -7.3530 113.9580 313° West 481 554 38,000  Level FlightAware
04:18PM -7.2810 113.8820 314° West 481 554 38,000  Level FlightAware
04:19PM -7.2200 113.8170 313° West 483 556 38,000  Level FlightAware
04:20PM -7.1490 113.7420 314° West 483 556 38,000  Level FlightAware
04:21PM -7.0900 113.6790 313° West 483 556 38,000  Level FlightAware
04:21PM -7.0180 113.6030 314° West 483 556 38,000  Level FlightAware
04:22PM -6.9660 113.5470 313° West 483 556 38,000  Level FlightAware
04:23PM -6.9050 113.4820 313° West 483 556 38,000  Level FlightAware
04:23PM -6.8430 113.4160 313° West 483 556 38,000  Level FlightAware
04:24PM -6.7920 113.3620 314° West 483 556 38,000  Level FlightAware
04:25PM -6.7200 113.2850 313° West 483 556 38,000  Level FlightAware
04:25PM -6.6830 113.2460 314° West 482 555 38,000  Level FlightAware
04:26PM -6.6200 113.1800 314° West 481 554 38,000  Level FlightAware
04:26PM -6.5600 113.1160 313° West 481 554 38,000  Level FlightAware
04:27PM -6.4900 113.0420 314° West 476 548 38,000  Level FlightAware
04:28PM -6.4380 112.9860 313° West 478 550 38,000  Level FlightAware
04:28PM -6.3750 112.9200 314° West 480 552 38,000  Level FlightAware
04:29PM -6.3130 112.8540 313° West 481 554 38,000  Level FlightAware
04:30PM -6.2530 112.7910 314° West 482 555 38,000  Level FlightAware
04:30PM -6.1900 112.7240 313° West 483 556 38,000  Level FlightAware
04:31PM -6.1270 112.6580 314° West 483 556 38,000  Level FlightAware
04:32PM -6.0430 112.5690 314° West 483 556 38,000  Level FlightAware
04:33PM -6.0590 112.5860 133° Southeast 476 548 38,000  Level FlightAware
04:33PM -5.9150 112.4340 314° West 471 542 38,000  Level FlightAware
04:34PM -5.8530 112.3700 314° West 471 542 38,000  Level FlightAware
04:35PM -5.8070 112.3220 314° West 471 542 38,000  Level FlightAware
04:36PM -5.7450 112.2570 314° West 471 542 38,000  Level FlightAware
04:36PM -5.6990 112.2090 314° West 471 542 38,000  Level FlightAware
04:37PM -5.6370 112.1450 314° West 471 542 38,000  Level FlightAware
04:38PM -5.5890 112.0950 314° West 471 542 38,000  Level FlightAware
04:38PM -5.5430 112.0470 314° West 471 542 38,000  Level FlightAware
04:39PM -5.4810 111.9830 314° West 471 542 38,000  Level FlightAware
04:40PM -5.4350 111.9350 314° West 471 542 38,000  Level FlightAware
04:40PM -5.3870 111.8850 314° West 471 542 38,000  Level FlightAware
04:41PM -5.3260 111.8210 314° West 471 542 38,000  Level FlightAware
04:42PM -5.2790 111.7730 315° West 471 542 38,000  Level FlightAware
04:42PM -5.2320 111.7230 313° West 471 542 38,000  Level FlightAware
04:45PM -5.0652 111.5114 308° West  Level Estimated
04:46PM -4.9905 111.4167 308° West  Level Estimated
04:47PM -4.9158 111.3220 308° West  Level Estimated
04:48PM -4.8411 111.2274 308° West  Level Estimated
04:49PM -4.7664 111.1327 308° West  Level Estimated
04:50PM -4.6916 111.0381 308° West  Level Estimated
04:51PM -4.6168 110.9435 308° West  Level Estimated
04:52PM -4.5421 110.8489 308° West  Level Estimated
04:53PM -4.4673 110.7544 308° West  Level Estimated
04:54PM -4.3925 110.6598 308° West  Level Estimated
04:55PM -4.3177 110.5653 308° West  Level Estimated
04:56PM -4.2429 110.4708 308° West  Level Estimated
04:57PM -4.1680 110.3763 308° West  Level Estimated
04:58PM -4.0932 110.2819 308° West  Level Estimated
04:59PM -4.0183 110.1874 308° West  Level Estimated
05:00PM -3.9434 110.0930 308° West  Level Estimated
05:01PM -3.8686 109.9986 308° West  Level Estimated
05:02PM -3.7937 109.9042 308° West  Level Estimated
05:03PM -3.7188 109.8098 308° West  Level Estimated
05:04PM -3.6439 109.7154 308° West  Level Estimated
05:05PM -3.5689 109.6211 309° West  Level Estimated
05:06PM -3.4940 109.5267 309° West  Level Estimated
05:07PM -3.4191 109.4324 309° West  Level Estimated
05:08PM -3.3441 109.3381 309° West  Level Estimated
05:09PM -3.2692 109.2438 309° West  Level Estimated
05:10PM -3.1942 109.1496 309° West  Level Estimated
05:11PM -3.1192 109.0553 309° West  Level Estimated
05:12PM -3.0443 108.9611 309° West  Level Estimated
05:13PM -2.9693 108.8668 309° West  Level Estimated
05:14PM -2.8943 108.7726 309° West  Level Estimated
05:15PM -2.8193 108.6784 309° West  Level Estimated
05:16PM -2.7442 108.5842 309° West  Level Estimated
05:17PM -2.6692 108.4900 309° West  Level Estimated
05:18PM -2.5942 108.3958 309° West  Level Estimated
05:19PM -2.5192 108.3017 309° West  Level Estimated
05:20PM -2.4441 108.2075 309° West  Level Estimated
05:21PM -2.3691 108.1134 309° West  Level Estimated
05:22PM -2.2940 108.0192 309° West  Level Estimated
05:23PM -2.2189 107.9251 309° West  Level Estimated
05:24PM -2.1439 107.8310 309° West  Level Estimated
05:25PM -2.0688 107.7369 309° West  Level Estimated
05:26PM -1.9937 107.6428 309° West  Level Estimated
05:27PM -1.9186 107.5487 309° West  Level Estimated
05:27PM -1.1970 107.1770 309° West 490 564 38,000  Level FlightAware
05:27PM -1.1500 107.1230 311° West 490 564 38,000  Level FlightAware
05:28PM -1.1040 107.0710 312° West 490 564 38,000  Level FlightAware
05:29PM -1.0440 107.0010 311° West 490 564 38,000  Level FlightAware
05:29PM -0.9830 106.9310 311° West 490 564 38,000  Level FlightAware
05:30PM -0.9370 106.8790 312° West 490 564 38,000  Level FlightAware
05:31PM -0.8770 106.8090 311° West 490 564 38,000  Level FlightAware
05:31PM -0.8310 106.7570 311° West 490 564 38,000  Level FlightAware
05:32PM -0.7710 106.6870 311° West 490 564 38,000 1,320 Level FlightAware
05:33PM -0.6430 106.5530 314° West 482 555 40,000 1,260 Climbing FlightAware
05:34PM -0.5690 106.4690 311° West 486 559 40,000  Level FlightAware
05:34PM -0.4990 106.3870 310° West 489 563 40,000  Level FlightAware
05:35PM -0.4420 106.3150 308° West 490 564 40,000  Level FlightAware
05:36PM -0.3840 106.2420 308° West 490 564 40,000  Level FlightAware
05:36PM -0.3280 106.1700 308° West 490 564 40,000  Level FlightAware
05:37PM -0.2620 106.0880 309° West 486 559 40,000  Level FlightAware
05:38PM -0.2120 106.0250 308° West 485 558 40,000  Level FlightAware
05:39PM -0.1540 105.9510 308° West 484 557 40,000  Level FlightAware
05:39PM -0.0980 105.8810 309° West 484 557 40,000  Level FlightAware
05:40PM -0.0480 105.8180 308° West 484 557 40,000  Level FlightAware
05:41PM 0.0110 105.7430 308° West 484 557 40,000  Level FlightAware
05:41PM 0.0710 105.6680 309° West 485 558 40,000  Level FlightAware
05:42PM 0.1300 105.5940 309° West 486 559 40,000  Level FlightAware
05:43PM 0.1830 105.5270 308° West 487 560 40,000  Level FlightAware
05:43PM 0.2480 105.4450 308° West 486 559 40,000  Level FlightAware
05:44PM 0.3030 105.3760 309° West 485 558 40,000  Level FlightAware
05:45PM 0.3590 105.3060 309° West 484 557 40,000  Level FlightAware
05:45PM 0.4110 105.2410 309° West 485 558 40,000  Level FlightAware
05:46PM 0.4710 105.1650 308° West 486 559 40,000  Level FlightAware
05:47PM 0.5250 105.0970 308° West 488 562 40,000  Level FlightAware
05:47PM 0.5800 105.0280 309° West 490 564 40,000  Level FlightAware
05:48PM 0.6370 104.9560 308° West 491 565 40,000  Level FlightAware
05:49PM 0.6950 104.8830 308° West 489 563 40,000  Level FlightAware
05:49PM 0.7560 104.8050 308° West 489 563 40,000  Level FlightAware
05:50PM 0.8200 104.7250 309° West 487 560 40,000  Level FlightAware
05:51PM 0.8750 104.6560 309° West 486 559 40,000  Level FlightAware
05:52PM 0.9360 104.5790 308° West 485 558 40,000  Level FlightAware
05:52PM 0.9930 104.5070 308° West 487 560 40,000  Level FlightAware
05:53PM 1.0550 104.4290 308° West 489 563 40,000  Level FlightAware
05:54PM 1.1110 104.3590 309° West 490 564 40,000 -120 Level FlightAware
05:54PM 1.1670 104.2890 309° West 491 565 39,900 -600 Descending FlightAware
05:55PM 1.2290 104.2100 308° West 491 565 39,200 -1,020 Descending FlightAware
05:56PM 1.2860 104.1380 308° West 497 572 38,500 -1,440 Descending FlightAware
05:56PM 1.3370 104.0740 309° West 500 575 37,400 -2,040 Descending FlightAware
05:57PM 1.4020 103.9920 308° West 505 581 35,800 -1,980 Descending FlightAware
05:58PM 1.4590 103.9200 308° West 500 575 34,700 -1,680 Descending FlightAware
05:58PM 1.5100 103.8550 308° West 491 565 33,700 -1,200 Descending FlightAware
05:59PM 1.5640 103.7870 308° West 488 562 33,200 -1,680 Descending FlightAware
06:00PM 1.6450 103.6840 308° West 470 541 30,900 -1,920 Descending FlightAware
06:01PM 1.6920 103.6050 301° West 454 522 30,000 -1,680 Descending FlightAware
06:01PM 1.7320 103.5230 296° West 449 517 28,600 -1,860 Descending FlightAware
06:02PM 1.7670 103.4520 296° West 441 507 27,500 -1,680 Descending FlightAware
06:03PM 1.8070 103.3710 296° West 431 496 26,300 -1,620 Descending FlightAware
06:03PM 1.8400 103.3040 296° West 421 484 25,300 -1,500 Descending FlightAware
06:04PM 1.8780 103.2250 296° West 412 474 24,200 -1,440 Descending FlightAware
06:05PM 1.9090 103.1610 296° West 408 470 23,300 -1,260 Descending FlightAware
06:05PM 1.9310 103.1170 297° West 406 467 22,600 -1,200 Descending FlightAware
06:06PM 1.9660 103.0450 296° West 400 460 21,600 -720 Descending FlightAware
06:07PM 1.9920 102.9910 296° West 400 460 21,600 -1,800 Level FlightAware
06:07PM 2.0330 102.9100 297° West 394 453 19,500 -2,400 Descending FlightAware
06:08PM 2.0620 102.8490 295° West 391 450 18,600 -1,500 Descending FlightAware
06:09PM 2.1110 102.7500 296° West 388 447 17,000 -1,260 Descending FlightAware
06:10PM 2.1430 102.6840 296° West 366 421 16,500 -1,140 Descending FlightAware
06:10PM 2.1740 102.6260 298° West 358 412 15,500 -1,380 Descending FlightAware
06:11PM 2.2140 102.5610 302° West 342 394 14,600 -1,560 Descending FlightAware
06:12PM 2.2540 102.4960 302° West 319 367 13,000 -1,860 Descending FlightAware
06:13PM 2.2930 102.4340 302° West 313 360 11,500 -1,560 Descending FlightAware
06:14PM 2.3250 102.3820 302° West 311 358 10,600 -1,200 Descending FlightAware
06:14PM 2.3580 102.3290 302° West 300 345 9,800 -1,200 Descending FlightAware
06:15PM 2.3910 102.2750 301° West 298 343 8,900 -1,200 Descending FlightAware
06:15PM 2.4070 102.2500 303° West 293 337 8,500 -1,080 Descending FlightAware
06:16PM 2.4270 102.2180 302° West 289 333 8,000 -900 Descending FlightAware
06:16PM 2.4500 102.1810 302° West 285 328 7,600 -660 Descending FlightAware
06:17PM 2.4650 102.1570 302° West 282 325 7,400 -720 Descending FlightAware
06:17PM 2.4890 102.1180 302° West 282 325 7,000 -660 Descending FlightAware
06:18PM 2.5240 102.0610 302° West 279 321 6,500 -900 Descending FlightAware
06:21PM 2.6589 101.8377 301° West  Level FlightAware Approximate
06:22PM 2.7212 101.7346 301° West  Level FlightAware Approximate
06:22PM 2.5400 101.8410 301° West 190 219 3,100  Level FlightAware
06:22PM 2.5460 101.8340 311° West 190 219 3,100  Level FlightAware
06:22PM 2.5660 101.8170 320° Northwest 190 219 3,100 -120 Level FlightAware
06:23PM 2.5870 101.8030 326° Northwest 183 211 3,000 -720 Descending FlightAware
06:23PM 2.6070 101.7890 325° Northwest 179 206 2,500 -1,140 Descending FlightAware
06:24PM 2.6280 101.7750 326° Northwest 183 211 2,000 -900 Descending FlightAware
06:24PM 2.6430 101.7650 326° Northwest 180 207 1,700 -780 Descending FlightAware
06:25PM 2.6620 101.7520 326° Northwest 165 190 1,300 -540 Descending FlightAware
06:25PM 2.6830 101.7380 326° Northwest 163 188 1,100 -300 Descending FlightAware
06:28PM 2.7433 101.6980 307° West  Level FlightAware Approximate
06:29PM 2.7456 101.7099 307° West  Level Estimated
06:30PM 2.7456 101.7099 307° West  Level Estimated
06:31PM 2.7456 101.7099 307° West  Level Estimated
06:32PM 2.7456 101.7099 307° West  Level Estimated
06:33PM 2.7456 101.7099 307° West  Level Estimated
06:34PM 2.7456 101.7099 307° West  Level Estimated
06:35PM 2.7456 101.7099 307° West  Level Estimated
06:36PM 2.7456 101.7099 307° West  Level Estimated